Time;durP1;ratioP1;P1;durP2;ratioP2;P2;SDS_P1;SDS_P2;PMS_P1;PMS_P2;Temp;Humidity;BMP_temperature;BMP_pressure;BME280_temperature;BME280_humidity;BME280_pressure;Samples;Min_cycle;Max_cycle;Signal;HPM_P1;HPM_P2
2023/10/04 00:00:47;;;;;;;;;;;;;;;;;;4963609;28;19926;-83
2023/10/04 00:03:12;;;;;;;;;;;;;;;;;;4963998;28;20043;-83
2023/10/04 00:05:38;;;;;;;;;;;;;;;;;;4946746;28;19930;-82
2023/10/04 00:08:05;;;;;;;;;;;;;;;;;;4961201;28;19925;-81
2023/10/04 00:10:31;;;;;;;;;;;;;;;;;;4959660;28;19925;-81
2023/10/04 00:12:57;;;;;;;;;;;;;;;;;;4975802;28;19929;-81
2023/10/04 00:15:27;;;;;;;;;;;;;;;;;;4964404;28;19933;-81
2023/10/04 00:17:53;;;;;;;;;;;;;;;;;;4941004;28;20016;-82
2023/10/04 00:20:19;;;;;;;;;;;;;;;;;;4962677;28;20008;-81
2023/10/04 00:22:46;;;;;;;;;;;;;;;;;;4964241;28;19926;-82
2023/10/04 00:25:12;;;;;;;;;;;;;;;;;;4962634;28;19949;-81
2023/10/04 00:27:40;;;;;;;;;;;;;;;;;;4962788;28;20874;-82
2023/10/04 00:30:06;;;;;;;;;;;;;;;;;;4963123;28;19929;-82
2023/10/04 00:32:32;;;;;;;;;;;;;;;;;;4963318;28;19955;-82
2023/10/04 00:34:58;;;;;;;;;;;;;;;;;;4964034;28;19932;-82
2023/10/04 00:37:24;;;;;;;;;;;;;;;;;;4941144;28;20306;-81
2023/10/04 00:39:50;;;;;;;;;;;;;;;;;;4963713;28;19937;-82
2023/10/04 00:42:19;;;;;;;;;;;;;;;;;;4962520;28;19926;-81
2023/10/04 00:44:47;;;;;;;;;;;;;;;;;;4961910;28;19929;-82
2023/10/04 00:47:13;;;;;;;;;;;;;;;;;;4936633;28;20246;-82
2023/10/04 00:49:45;;;;;;;;;;;;;;;;;;4963547;28;19926;-82
2023/10/04 00:52:11;;;;;;;;;;;;;;;;;;4948176;28;19925;-81
2023/10/04 00:54:37;;;;;;;;;;;;;;;;;;4967202;28;20885;-81
2023/10/04 00:57:04;;;;;;;;;;;;;;;;;;4951196;28;19930;-82
2023/10/04 00:59:31;;;;;;;;;;;;;;;;;;4966886;28;20465;-81
2023/10/04 01:01:57;;;;;;;;;;;;;;;;;;4965840;28;19922;-81
2023/10/04 01:04:25;;;;;;;;;;;;;;;;;;4966645;28;20052;-81
2023/10/04 01:06:51;;;;;;;;;;;;;;;;;;4964622;28;19925;-81
2023/10/04 01:09:19;;;;;;;;;;;;;;;;;;4990589;28;20037;-82
2023/10/04 01:11:45;;;;;;;;;;;;;;;;;;4950780;28;19926;-82
2023/10/04 01:17:12;;;;;;;;;;;;;;;;;;4950664;28;19922;-82
2023/10/04 01:19:38;;;;;;;;;;;;;;;;;;4964137;28;19968;-82
2023/10/04 01:22:04;;;;;;;;;;;;;;;;;;4967852;28;19968;-81
2023/10/04 01:24:33;;;;;;;;;;;;;;;;;;4964286;28;20555;-81
2023/10/04 01:27:00;;;;;;;;;;;;;;;;;;4965688;28;20317;-81
2023/10/04 01:29:26;;;;;;;;;;;;;;;;;;4965875;28;19926;-81
2023/10/04 01:31:53;;;;;;;;;;;;;;;;;;4966875;28;19925;-82
2023/10/04 01:34:19;;;;;;;;;;;;;;;;;;4966760;28;19932;-82
2023/10/04 01:36:46;;;;;;;;;;;;;;;;;;4966120;28;19933;-82
2023/10/04 01:39:19;;;;;;;;;;;;;;;;;;4968421;28;20458;-82
2023/10/04 01:41:44;;;;;;;;;;;;;;;;;;4965604;28;19925;-83
2023/10/04 01:44:10;;;;;;;;;;;;;;;;;;4964959;28;20338;-83
2023/10/04 01:46:37;;;;;;;;;;;;;;;;;;4965082;28;19925;-81
2023/10/04 01:49:03;;;;;;;;;;;;;;;;;;4953025;28;19929;-83
2023/10/04 01:51:29;;;;;;;;;;;;;;;;;;4965405;28;19933;-85
2023/10/04 01:53:58;;;;;;;;;;;;;;;;;;4946839;28;20393;-81
2023/10/04 01:56:24;;;;;;;;;;;;;;;;;;4984113;28;20349;-81
2023/10/04 01:58:51;;;;;;;;;;;;;;;;;;4966049;28;19936;-81
2023/10/04 02:01:17;;;;;;;;;;;;;;;;;;4965518;28;19926;-81
2023/10/04 02:03:44;;;;;;;;;;;;;;;;;;4949279;28;19933;-81
2023/10/04 02:06:10;;;;;;;;;;;;;;;;;;4950247;28;20743;-81
2023/10/04 02:08:36;;;;;;;;;;;;;;;;;;4965896;28;19932;-81
2023/10/04 02:11:01;;;;;;;;;;;;;;;;;;4982452;28;19921;-82
2023/10/04 02:13:28;;;;;;;;;;;;;;;;;;4966706;28;19933;-82
2023/10/04 02:15:54;;;;;;;;;;;;;;;;;;4963267;28;19975;-81
2023/10/04 02:18:21;;;;;;;;;;;;;;;;;;4967575;28;19925;-81
2023/10/04 02:20:48;;;;;;;;;;;;;;;;;;4981259;28;20412;-82
2023/10/04 02:23:14;;;;;;;;;;;;;;;;;;4965672;28;20005;-81
2023/10/04 02:25:40;;;;;;;;;;;;;;;;;;4963351;28;19932;-81
2023/10/04 02:28:11;;;;;;;;;;;;;;;;;;4966195;28;19922;-82
2023/10/04 02:30:37;;;;;;;;;;;;;;;;;;4965933;28;19926;-81
2023/10/04 02:33:12;;;;;;;;;;;;;;;;;;4984303;28;19930;-82
2023/10/04 02:35:43;;;;;;;;;;;;;;;;;;4980947;28;19933;-81
2023/10/04 02:38:26;;;;;;;;;;;;;;;;;;4984194;28;20293;-82
2023/10/04 02:40:52;;;;;;;;;;;;;;;;;;4964723;28;19925;-83
2023/10/04 02:43:18;;;;;;;;;;;;;;;;;;4963633;28;20298;-82
2023/10/04 02:45:47;;;;;;;;;;;;;;;;;;4963417;28;19933;-82
2023/10/04 02:48:13;;;;;;;;;;;;;;;;;;4965820;28;20294;-82
2023/10/04 02:50:42;;;;;;;;;;;;;;;;;;4963332;28;19979;-83
2023/10/04 02:53:16;;;;;;;;;;;;;;;;;;4964287;28;19940;-82
2023/10/04 02:55:42;;;;;;;;;;;;;;;;;;4961686;28;19972;-82
2023/10/04 02:58:10;;;;;;;;;;;;;;;;;;4964974;28;19925;-83
2023/10/04 03:00:35;;;;;;;;;;;;;;;;;;4942416;28;20306;-82
2023/10/04 03:03:02;;;;;;;;;;;;;;;;;;4966208;28;19922;-83
2023/10/04 03:05:30;;;;;;;;;;;;;;;;;;4960553;28;19929;-83
2023/10/04 03:07:56;;;;;;;;;;;;;;;;;;4963454;28;19976;-83
2023/10/04 03:10:25;;;;;;;;;;;;;;;;;;4964406;28;20307;-84
2023/10/04 03:12:51;;;;;;;;;;;;;;;;;;4961092;28;20796;-83
2023/10/04 03:15:17;;;;;;;;;;;;;;;;;;4948647;28;19922;-83
2023/10/04 03:17:44;;;;;;;;;;;;;;;;;;4962037;28;19930;-82
2023/10/04 03:20:20;;;;;;;;;;;;;;;;;;4965670;28;20116;-82
2023/10/04 03:22:46;;;;;;;;;;;;;;;;;;4963314;28;19926;-82
2023/10/04 03:25:11;;;;;;;;;;;;;;;;;;4981819;28;20567;-83
2023/10/04 03:27:42;;;;;;;;;;;;;;;;;;4961305;28;19925;-83
2023/10/04 03:30:12;;;;;;;;;;;;;;;;;;4952941;28;20524;-83
2023/10/04 03:32:38;;;;;;;;;;;;;;;;;;4955215;28;19930;-81
2023/10/04 03:35:06;;;;;;;;;;;;;;;;;;4960164;28;20401;-82
2023/10/04 03:37:38;;;;;;;;;;;;;;;;;;4958512;28;20293;-82
2023/10/04 03:40:06;;;;;;;;;;;;;;;;;;4964435;28;19926;-83
2023/10/04 03:42:34;;;;;;;;;;;;;;;;;;4962864;28;20383;-82
2023/10/04 03:45:00;;;;;;;;;;;;;;;;;;4964306;28;19959;-83
2023/10/04 03:47:26;;;;;;;;;;;;;;;;;;4963156;28;19925;-82
2023/10/04 03:49:52;;;;;;;;;;;;;;;;;;4966260;28;19932;-82
2023/10/04 03:52:19;;;;;;;;;;;;;;;;;;4972619;28;20274;-82
2023/10/04 03:54:46;;;;;;;;;;;;;;;;;;4964642;28;19980;-82
2023/10/04 03:57:12;;;;;;;;;;;;;;;;;;4980585;28;20012;-83
2023/10/04 03:59:38;;;;;;;;;;;;;;;;;;4947348;28;19929;-82
2023/10/04 04:02:05;;;;;;;;;;;;;;;;;;4964959;28;20084;-82
2023/10/04 04:04:33;;;;;;;;;;;;;;;;;;4961968;28;19932;-82
2023/10/04 04:06:59;;;;;;;;;;;;;;;;;;4963892;28;20702;-82
2023/10/04 04:09:25;;;;;;;;;;;;;;;;;;4963233;28;19926;-82
2023/10/04 04:11:52;;;;;;;;;;;;;;;;;;4963962;28;19936;-83
2023/10/04 04:14:20;;;;;;;;;;;;;;;;;;4962752;28;20316;-83
2023/10/04 04:16:46;;;;;;;;;;;;;;;;;;4962460;28;20730;-82
2023/10/04 04:19:14;;;;;;;;;;;;;;;;;;4963241;28;20434;-83
2023/10/04 04:21:40;;;;;;;;;;;;;;;;;;4962745;28;19965;-82
2023/10/04 04:24:06;;;;;;;;;;;;;;;;;;4982429;28;19968;-81
2023/10/04 04:26:33;;;;;;;;;;;;;;;;;;4960503;28;19925;-81
2023/10/04 04:28:59;;;;;;;;;;;;;;;;;;4964183;28;20021;-82
2023/10/04 04:31:25;;;;;;;;;;;;;;;;;;4961236;28;19925;-82
2023/10/04 04:33:55;;;;;;;;;;;;;;;;;;4964893;28;19937;-82
2023/10/04 04:36:27;;;;;;;;;;;;;;;;;;4961823;28;20325;-81
2023/10/04 04:38:55;;;;;;;;;;;;;;;;;;4962673;28;19952;-82
2023/10/04 04:41:27;;;;;;;;;;;;;;;;;;4963002;28;19922;-82
2023/10/04 04:43:55;;;;;;;;;;;;;;;;;;4962976;28;20381;-82
2023/10/04 04:46:23;;;;;;;;;;;;;;;;;;4943073;28;19928;-81
2023/10/04 04:48:49;;;;;;;;;;;;;;;;;;4947089;28;19992;-82
2023/10/04 04:51:15;;;;;;;;;;;;;;;;;;4961968;28;19925;-82
2023/10/04 04:53:41;;;;;;;;;;;;;;;;;;4982424;28;19926;-82
2023/10/04 04:56:18;;;;;;;;;;;;;;;;;;4936841;28;20321;-82
2023/10/04 04:58:47;;;;;;;;;;;;;;;;;;4964416;28;19921;-82
2023/10/04 05:01:13;;;;;;;;;;;;;;;;;;4944365;28;19925;-81
2023/10/04 05:03:42;;;;;;;;;;;;;;;;;;4942683;28;19948;-82
2023/10/04 05:06:10;;;;;;;;;;;;;;;;;;4943707;28;19975;-82
2023/10/04 05:08:36;;;;;;;;;;;;;;;;;;4962367;28;19929;-82
2023/10/04 05:11:03;;;;;;;;;;;;;;;;;;4943960;28;20032;-82
2023/10/04 05:13:29;;;;;;;;;;;;;;;;;;4964204;28;20204;-82
2023/10/04 05:15:56;;;;;;;;;;;;;;;;;;4960989;28;19922;-83
2023/10/04 05:18:22;;;;;;;;;;;;;;;;;;4944274;28;19945;-84
2023/10/04 05:20:54;;;;;;;;;;;;;;;;;;4963505;28;19930;-82
2023/10/04 05:23:21;;;;;;;;;;;;;;;;;;4979997;28;19926;-83
2023/10/04 05:25:47;;;;;;;;;;;;;;;;;;4962990;28;20052;-83
2023/10/04 05:28:13;;;;;;;;;;;;;;;;;;4980987;28;20345;-83
2023/10/04 05:30:39;;;;;;;;;;;;;;;;;;4962197;28;19929;-83
2023/10/04 05:33:06;;;;;;;;;;;;;;;;;;4959284;28;19926;-83
2023/10/04 05:35:32;;;;;;;;;;;;;;;;;;4947288;28;20328;-83
2023/10/04 05:37:58;;;;;;;;;;;;;;;;;;4965751;28;20478;-83
2023/10/04 05:40:27;;;;;;;;;;;;;;;;;;4949896;28;20208;-83
2023/10/04 05:42:53;;;;;;;;;;;;;;;;;;4965606;28;19952;-83
2023/10/04 05:45:19;;;;;;;;;;;;;;;;;;4945079;28;19968;-83
2023/10/04 05:47:45;;;;;;;;;;;;;;;;;;4966768;28;19925;-83
2023/10/04 05:50:14;;;;;;;;;;;;;;;;;;4964066;28;19933;-82
2023/10/04 05:52:40;;;;;;;;;;;;;;;;;;4966521;28;19926;-82
2023/10/04 05:55:08;;;;;;;;;;;;;;;;;;4957705;28;20624;-82
2023/10/04 05:57:34;;;;;;;;;;;;;;;;;;4964548;28;19925;-82
2023/10/04 06:00:00;;;;;;;;;;;;;;;;;;4965363;28;20707;-83
2023/10/04 06:02:26;;;;;;;;;;;;;;;;;;4962618;28;19925;-82
2023/10/04 06:04:53;;;;;;;;;;;;;;;;;;4980502;28;19969;-83
2023/10/04 06:07:18;;;;;;;;;;;;;;;;;;4981620;28;20019;-83
2023/10/04 06:09:45;;;;;;;;;;;;;;;;;;4983789;28;20434;-82
2023/10/04 06:12:11;;;;;;;;;;;;;;;;;;4983715;28;20704;-83
2023/10/04 06:14:37;;;;;;;;;;;;;;;;;;4964150;28;19925;-84
2023/10/04 06:17:04;;;;;;;;;;;;;;;;;;4967644;28;20279;-83
2023/10/04 06:19:30;;;;;;;;;;;;;;;;;;4981558;28;19925;-83
2023/10/04 06:21:56;;;;;;;;;;;;;;;;;;4966276;28;19937;-83
2023/10/04 06:24:22;;;;;;;;;;;;;;;;;;4982563;28;19925;-83
2023/10/04 06:26:48;;;;;;;;;;;;;;;;;;4981896;28;19940;-83
2023/10/04 06:29:14;;;;;;;;;;;;;;;;;;4964851;28;19992;-83
2023/10/04 06:31:41;;;;;;;;;;;;;;;;;;4982954;28;19922;-84
2023/10/04 06:34:07;;;;;;;;;;;;;;;;;;4982361;28;20309;-82
2023/10/04 06:36:33;;;;;;;;;;;;;;;;;;4980923;28;19932;-82
2023/10/04 06:38:59;;;;;;;;;;;;;;;;;;4980273;28;19929;-82
2023/10/04 06:41:26;;;;;;;;;;;;;;;;;;4981165;28;19925;-82
2023/10/04 06:43:52;;;;;;;;;;;;;;;;;;4964575;28;19925;-83
2023/10/04 06:46:18;;;;;;;;;;;;;;;;;;4962667;28;19929;-82
2023/10/04 06:48:47;;;;;;;;;;;;;;;;;;4959428;28;19961;-83
2023/10/04 06:51:14;;;;;;;;;;;;;;;;;;4959099;28;19945;-84
2023/10/04 06:53:43;;;;;;;;;;;;;;;;;;4940087;28;20016;-83
2023/10/04 06:56:09;;;;;;;;;;;;;;;;;;4965762;28;19958;-83
2023/10/04 06:58:38;;;;;;;;;;;;;;;;;;4939011;28;19952;-83
2023/10/04 07:01:05;;;;;;;;;;;;;;;;;;4966998;28;19926;-84
2023/10/04 07:03:43;;;;;;;;;;;;;;;;;;4959402;28;20191;-82
2023/10/04 07:06:09;;;;;;;;;;;;;;;;;;4959986;28;19922;-83
2023/10/04 07:08:35;;;;;;;;;;;;;;;;;;4937485;28;19925;-83
2023/10/04 07:11:04;;;;;;;;;;;;;;;;;;4939163;28;19926;-83
2023/10/04 07:13:32;;;;;;;;;;;;;;;;;;4940377;28;19926;-84
2023/10/04 07:16:00;;;;;;;;;;;;;;;;;;4977214;28;19969;-84
2023/10/04 07:18:27;;;;;;;;;;;;;;;;;;4974423;28;19948;-83
2023/10/04 07:20:56;;;;;;;;;;;;;;;;;;4961514;28;20165;-83
2023/10/04 07:23:22;;;;;;;;;;;;;;;;;;4971059;28;20801;-83
2023/10/04 07:25:57;;;;;;;;;;;;;;;;;;4978177;28;19937;-82
2023/10/04 07:28:26;;;;;;;;;;;;;;;;;;4942563;28;19930;-82
2023/10/04 07:30:52;;;;;;;;;;;;;;;;;;4961394;28;19930;-85
2023/10/04 07:33:21;;;;;;;;;;;;;;;;;;4941570;28;19930;-84
2023/10/04 07:35:47;;;;;;;;;;;;;;;;;;4934380;28;19926;-83
2023/10/04 07:38:14;;;;;;;;;;;;;;;;;;4917629;29;19929;-84
2023/10/04 07:40:44;;;;;;;;;;;;;;;;;;4936980;29;20107;-83
2023/10/04 07:43:16;;;;;;;;;;;;;;;;;;4937121;29;20406;-84
2023/10/04 07:45:42;;;;;;;;;;;;;;;;;;4938572;29;19926;-84
2023/10/04 07:48:12;;;;;;;;;;;;;;;;;;4932631;29;19942;-83
2023/10/04 07:50:39;;;;;;;;;;;;;;;;;;4935175;29;19933;-83
2023/10/04 07:53:21;;;;;;;;;;;;;;;;;;4934607;29;20041;-84
2023/10/04 07:55:47;;;;;;;;;;;;;;;;;;4933227;29;19992;-84
2023/10/04 07:58:20;;;;;;;;;;;;;;;;;;4933774;29;19938;-83
2023/10/04 08:00:46;;;;;;;;;;;;;;;;;;4935989;28;20027;-83
2023/10/04 08:03:12;;;;;;;;;;;;;;;;;;4922271;29;19926;-84
2023/10/04 08:05:39;;;;;;;;;;;;;;;;;;4914978;29;19927;-84
2023/10/04 08:08:05;;;;;;;;;;;;;;;;;;4919067;29;19929;-83
2023/10/04 08:13:41;;;;;;;;;;;;;;;;;;4938468;29;19920;-84
2023/10/04 08:16:10;;;;;;;;;;;;;;;;;;4916566;29;19926;-83
2023/10/04 08:18:37;;;;;;;;;;;;;;;;;;4918913;29;19926;-83
2023/10/04 08:21:06;;;;;;;;;;;;;;;;;;4918397;29;19968;-82
2023/10/04 08:23:33;;;;;;;;;;;;;;;;;;4937882;29;19926;-84
2023/10/04 08:31:52;;;;;;;;;;;;;;;;;;4980930;23;19988;-83
2023/10/04 08:34:21;;;;;;;;;;;;;;;;;;4972169;28;19937;-84
2023/10/04 08:36:47;;;;;;;;;;;;;;;;;;4941999;28;20321;-83
2023/10/04 08:39:16;;;;;;;;;;;;;;;;;;4971866;28;19926;-84
2023/10/04 08:41:43;;;;;;;;;;;;;;;;;;4941849;28;20353;-83
2023/10/04 08:44:11;;;;;;;;;;;;;;;;;;4974156;28;19933;-85
2023/10/04 08:46:39;;;;;;;;;;;;;;;;;;4954412;28;20016;-84
2023/10/04 08:49:10;;;;;;;;;;;;;;;;;;4957174;28;19933;-83
2023/10/04 08:51:36;;;;;;;;;;;;;;;;;;4959034;28;19951;-83
2023/10/04 08:54:12;;;;;;;;;;;;;;;;;;4957528;28;20889;-84
2023/10/04 08:56:38;;;;;;;;;;;;;;;;;;4951516;28;19926;-84
2023/10/04 08:59:07;;;;;;;;;;;;;;;;;;4955725;28;20425;-83
2023/10/04 09:01:36;;;;;;;;;;;;;;;;;;4942927;28;20432;-84
2023/10/04 09:04:05;;;;;;;;;;;;;;;;;;4955498;28;19921;-83
2023/10/04 09:06:31;;;;;;;;;;;;;;;;;;4972272;28;20290;-83
2023/10/04 09:08:57;;;;;;;;;;;;;;;;;;4973382;28;19929;-82
2023/10/04 09:11:32;;;;;;;;;;;;;;;;;;4955550;28;19991;-84
2023/10/04 09:13:58;;;;;;;;;;;;;;;;;;4965342;28;20316;-86
2023/10/04 09:16:31;;;;;;;;;;;;;;;;;;4949095;28;19952;-83
2023/10/04 09:18:57;;;;;;;;;;;;;;;;;;4962112;28;20032;-83
2023/10/04 09:21:23;;;;;;;;;;;;;;;;;;4965914;28;20040;-83
2023/10/04 09:23:49;;;;;;;;;;;;;;;;;;4985162;28;20443;-83
2023/10/04 09:26:15;;;;;;;;;;;;;;;;;;4984177;28;19930;-85
2023/10/04 09:28:44;;;;;;;;;;;;;;;;;;4944350;28;19922;-83
2023/10/04 09:31:11;;;;;;;;;;;;;;;;;;4982475;28;20112;-80
2023/10/04 09:33:40;;;;;;;;;;;;;;;;;;4981734;28;20360;-83
2023/10/04 09:36:06;;;;;;;;;;;;;;;;;;4978448;28;19925;-82
2023/10/04 09:38:35;;;;;;;;;;;;;;;;;;4980487;28;20353;-83
2023/10/04 09:41:01;;;;;;;;;;;;;;;;;;4977290;28;20299;-82
2023/10/04 09:43:27;;;;;;;;;;;;;;;;;;4963858;28;19953;-82
2023/10/04 09:45:53;;;;;;;;;;;;;;;;;;4977356;28;19961;-82
2023/10/04 09:48:19;;;;;;;;;;;;;;;;;;4962133;28;19926;-81
2023/10/04 09:50:45;;;;;;;;;;;;;;;;;;4952419;28;19937;-82
2023/10/04 09:53:11;;;;;;;;;;;;;;;;;;4981672;28;19932;-81
2023/10/04 09:55:37;;;;;;;;;;;;;;;;;;4966181;28;19925;-82
2023/10/04 09:58:03;;;;;;;;;;;;;;;;;;4963024;28;20389;-83
2023/10/04 10:16:00;;;;;;;;;;;;;;;;;;4895455;29;20310;-82
2023/10/04 10:22:01;;;;;;;;;;;;;;;;;;4783705;29;19925;-83
2023/10/04 10:24:27;;;;;;;;;;;;;;;;;;4817613;29;19933;-83
2023/10/04 10:26:52;;;;;;;;;;;;;;;;;;4870950;28;19929;-83
2023/10/04 10:29:19;;;;;;;;;;;;;;;;;;4957358;28;19984;-82
2023/10/04 10:31:45;;;;;;;;;;;;;;;;;;4919231;28;20171;-82
2023/10/04 10:34:11;;;;;;;;;;;;;;;;;;4936740;28;19997;-83
2023/10/04 10:36:37;;;;;;;;;;;;;;;;;;4919021;28;19934;-82
2023/10/04 10:39:03;;;;;;;;;;;;;;;;;;4935359;28;20396;-83
2023/10/04 10:41:30;;;;;;;;;;;;;;;;;;4940050;28;19926;-82
2023/10/04 10:43:56;;;;;;;;;;;;;;;;;;4939637;28;19926;-84
2023/10/04 10:46:22;;;;;;;;;;;;;;;;;;4940006;28;19937;-82
2023/10/04 10:48:48;;;;;;;;;;;;;;;;;;4941711;28;19946;-83
2023/10/04 10:51:14;;;;;;;;;;;;;;;;;;4920849;28;19926;-84
2023/10/04 10:53:40;;;;;;;;;;;;;;;;;;4945203;28;20389;-83
2023/10/04 10:56:06;;;;;;;;;;;;;;;;;;4944468;28;19926;-85
2023/10/04 10:58:32;;;;;;;;;;;;;;;;;;4941401;28;19933;-84
2023/10/04 11:00:58;;;;;;;;;;;;;;;;;;4945766;28;19930;-83
2023/10/04 11:03:24;;;;;;;;;;;;;;;;;;4920321;28;20076;-83
2023/10/04 11:05:50;;;;;;;;;;;;;;;;;;4932759;29;20337;-83
2023/10/04 11:08:15;;;;;;;;;;;;;;;;;;4941195;28;19933;-83
2023/10/04 11:10:41;;;;;;;;;;;;;;;;;;4943265;28;19988;-84
2023/10/04 11:13:12;;;;;;;;;;;;;;;;;;4946754;28;19926;-86
2023/10/04 11:15:38;;;;;;;;;;;;;;;;;;4943358;28;19930;-84
2023/10/04 11:18:06;;;;;;;;;;;;;;;;;;4945328;28;20366;-84
2023/10/04 11:20:35;;;;;;;;;;;;;;;;;;4944455;28;20526;-84
2023/10/04 11:23:01;;;;;;;;;;;;;;;;;;4944848;28;20470;-83
2023/10/04 11:25:27;;;;;;;;;;;;;;;;;;4946443;28;20501;-84
2023/10/04 11:27:53;;;;;;;;;;;;;;;;;;4942703;28;19925;-83
2023/10/04 11:30:27;;;;;;;;;;;;;;;;;;4929989;28;19926;-85
2023/10/04 11:32:53;;;;;;;;;;;;;;;;;;4943443;28;20229;-84
2023/10/04 11:35:19;;;;;;;;;;;;;;;;;;4945310;28;20216;-82
2023/10/04 11:37:45;;;;;;;;;;;;;;;;;;4946348;28;20378;-83
2023/10/04 11:40:11;;;;;;;;;;;;;;;;;;4947857;28;19926;-84
2023/10/04 11:42:37;;;;;;;;;;;;;;;;;;4945711;28;19941;-84
2023/10/04 11:45:03;;;;;;;;;;;;;;;;;;4943930;28;19953;-84
2023/10/04 11:47:32;;;;;;;;;;;;;;;;;;4944972;28;19965;-83
2023/10/04 11:50:07;;;;;;;;;;;;;;;;;;4942892;28;20314;-83
2023/10/04 11:52:34;;;;;;;;;;;;;;;;;;4927775;28;19930;-86
2023/10/04 11:55:00;;;;;;;;;;;;;;;;;;4928087;28;19922;-82
2023/10/04 11:57:26;;;;;;;;;;;;;;;;;;4961408;28;19922;-86
2023/10/04 11:59:52;;;;;;;;;;;;;;;;;;4928069;28;20037;-86
2023/10/04 12:02:19;;;;;;;;;;;;;;;;;;4962275;28;20020;-86
2023/10/04 12:04:47;;;;;;;;;;;;;;;;;;4942698;28;19926;-84
2023/10/04 12:07:13;;;;;;;;;;;;;;;;;;4943473;28;19926;-83
2023/10/04 12:09:39;;;;;;;;;;;;;;;;;;4962074;28;19921;-85
2023/10/04 12:12:05;;;;;;;;;;;;;;;;;;4941630;28;20406;-85
2023/10/04 12:14:31;;;;;;;;;;;;;;;;;;4943688;28;19941;-83
2023/10/04 12:16:57;;;;;;;;;;;;;;;;;;4956488;28;19926;-83
2023/10/04 12:19:26;;;;;;;;;;;;;;;;;;4924883;28;19922;-82
2023/10/04 12:31:30;;;;;;;;;;;;;;;;;;4854462;29;19924;-81
2023/10/04 12:46:47;;;;;;;;;;;;;;;;;;4824390;29;19925;-81
2023/10/04 12:52:20;;;;;;;;;;;;;;;;;;4793875;29;20019;-82
2023/10/04 12:58:04;;;;;;;;;;;;;;;;;;4774835;29;20446;-83
2023/10/04 13:00:53;;;;;;;;;;;;;;;;;;4790472;29;20407;-83
2023/10/04 13:09:46;;;;;;;;;;;;;;;;;;4881928;29;19966;-83
2023/10/04 13:18:32;;;;;;;;;;;;;;;;;;4930841;29;19926;-82
2023/10/04 13:21:25;;;;;;;;;;;;;;;;;;4888711;29;19942;-82
2023/10/04 13:29:42;;;;;;;;;;;;;;;;;;4923187;29;20076;-81
2023/10/04 13:32:23;;;;;;;;;;;;;;;;;;4941556;29;19932;-81
2023/10/04 13:44:34;;;;;;;;;;;;;;;;;;4899779;29;20023;-83
2023/10/04 13:50:27;;;;;;;;;;;;;;;;;;4909960;29;20022;-83
2023/10/04 13:56:26;;;;;;;;;;;;;;;;;;4868996;29;20350;-80
2023/10/04 13:59:05;;;;;;;;;;;;;;;;;;4896431;29;20427;-81
2023/10/04 14:04:31;;;;;;;;;;;;;;;;;;4860776;29;19938;-80
2023/10/04 14:07:03;;;;;;;;;;;;;;;;;;4891097;29;19935;-80
2023/10/04 14:18:55;;;;;;;;;;;;;;;;;;4885197;29;19943;-81
2023/10/04 14:21:24;;;;;;;;;;;;;;;;;;4898146;29;20331;-80
2023/10/04 14:26:57;;;;;;;;;;;;;;;;;;4897883;29;19974;-81
2023/10/04 14:35:46;;;;;;;;;;;;;;;;;;4896810;29;19930;-82
2023/10/04 14:41:13;;;;;;;;;;;;;;;;;;4884271;29;20653;-81
2023/10/04 14:43:40;;;;;;;;;;;;;;;;;;4940021;28;20325;-82
2023/10/04 14:46:16;;;;;;;;;;;;;;;;;;4921673;28;20460;-81
2023/10/04 14:48:42;;;;;;;;;;;;;;;;;;4960075;28;19936;-83
2023/10/04 14:51:08;;;;;;;;;;;;;;;;;;4964200;28;19926;-82
2023/10/04 14:53:34;;;;;;;;;;;;;;;;;;4962145;28;19937;-82
2023/10/04 14:56:00;;;;;;;;;;;;;;;;;;4960424;28;19926;-82
2023/10/04 14:58:27;;;;;;;;;;;;;;;;;;4964159;28;20429;-81
2023/10/04 15:00:53;;;;;;;;;;;;;;;;;;4960267;28;19934;-83
2023/10/04 15:03:20;;;;;;;;;;;;;;;;;;4945116;28;19929;-82
2023/10/04 15:05:46;;;;;;;;;;;;;;;;;;4959849;28;19926;-82
2023/10/04 15:08:12;;;;;;;;;;;;;;;;;;4960102;28;19951;-83
2023/10/04 15:10:38;;;;;;;;;;;;;;;;;;4957890;28;20594;-83
2023/10/04 15:13:04;;;;;;;;;;;;;;;;;;4943162;28;19930;-82
2023/10/04 15:15:33;;;;;;;;;;;;;;;;;;4959536;28;19922;-81
2023/10/04 15:17:59;;;;;;;;;;;;;;;;;;4960330;28;20508;-81
2023/10/04 15:20:25;;;;;;;;;;;;;;;;;;4956932;28;20276;-81
2023/10/04 15:22:51;;;;;;;;;;;;;;;;;;4957475;28;19965;-82
2023/10/04 15:25:20;;;;;;;;;;;;;;;;;;4960015;28;19926;-82
2023/10/04 15:27:55;;;;;;;;;;;;;;;;;;4958330;28;20338;-83
2023/10/04 15:30:24;;;;;;;;;;;;;;;;;;4947427;28;19925;-81
2023/10/04 15:32:51;;;;;;;;;;;;;;;;;;4961656;28;19926;-82
2023/10/04 15:35:21;;;;;;;;;;;;;;;;;;4965682;28;20371;-82
2023/10/04 15:37:48;;;;;;;;;;;;;;;;;;4945180;28;19932;-81
2023/10/04 15:40:14;;;;;;;;;;;;;;;;;;4963416;28;20374;-81
2023/10/04 15:42:40;;;;;;;;;;;;;;;;;;4964173;28;20352;-80
2023/10/04 15:45:06;;;;;;;;;;;;;;;;;;4960789;28;20378;-83
2023/10/04 15:47:32;;;;;;;;;;;;;;;;;;4964240;28;19925;-82
2023/10/04 15:49:58;;;;;;;;;;;;;;;;;;4962728;28;19926;-83
2023/10/04 15:52:26;;;;;;;;;;;;;;;;;;4964022;28;20349;-82
2023/10/04 15:54:52;;;;;;;;;;;;;;;;;;4964125;28;19949;-82
2023/10/04 15:57:18;;;;;;;;;;;;;;;;;;4961785;28;20306;-81
2023/10/04 15:59:44;;;;;;;;;;;;;;;;;;4960689;28;19925;-80
2023/10/04 16:02:11;;;;;;;;;;;;;;;;;;4960930;28;20009;-81
2023/10/04 16:04:39;;;;;;;;;;;;;;;;;;4944748;28;19925;-83
2023/10/04 16:07:05;;;;;;;;;;;;;;;;;;4962073;28;19922;-83
2023/10/04 16:09:31;;;;;;;;;;;;;;;;;;4947165;28;19921;-82
2023/10/04 16:11:57;;;;;;;;;;;;;;;;;;4962341;28;19945;-84
2023/10/04 16:14:23;;;;;;;;;;;;;;;;;;4964259;28;19969;-83
2023/10/04 16:16:49;;;;;;;;;;;;;;;;;;4940501;28;19932;-84
2023/10/04 16:19:15;;;;;;;;;;;;;;;;;;4948455;28;20011;-84
2023/10/04 16:21:42;;;;;;;;;;;;;;;;;;4962445;28;20012;-84
2023/10/04 16:24:07;;;;;;;;;;;;;;;;;;4961658;28;20635;-84
2023/10/04 16:26:36;;;;;;;;;;;;;;;;;;4980243;28;19930;-83
2023/10/04 16:29:02;;;;;;;;;;;;;;;;;;4943619;28;20381;-83
2023/10/04 16:31:27;;;;;;;;;;;;;;;;;;4926516;28;19992;-83
2023/10/04 16:33:53;;;;;;;;;;;;;;;;;;4937996;28;20397;-83
2023/10/04 16:36:20;;;;;;;;;;;;;;;;;;4940910;28;19930;-83
2023/10/04 16:38:46;;;;;;;;;;;;;;;;;;4940564;28;19926;-85
2023/10/04 16:41:12;;;;;;;;;;;;;;;;;;4921140;28;20327;-84
2023/10/04 16:43:38;;;;;;;;;;;;;;;;;;4924678;28;19932;-84
2023/10/04 16:46:04;;;;;;;;;;;;;;;;;;4938356;28;19934;-85
2023/10/04 16:48:32;;;;;;;;;;;;;;;;;;4925835;28;19932;-83
2023/10/04 16:50:58;;;;;;;;;;;;;;;;;;4956785;28;19936;-86
2023/10/04 16:53:24;;;;;;;;;;;;;;;;;;4958937;28;20020;-83
2023/10/04 16:55:50;;;;;;;;;;;;;;;;;;4939031;28;20009;-85
2023/10/04 16:58:16;;;;;;;;;;;;;;;;;;4917415;28;19931;-82
2023/10/04 17:00:43;;;;;;;;;;;;;;;;;;4940177;28;20375;-83
2023/10/04 17:03:08;;;;;;;;;;;;;;;;;;4956708;28;20009;-83
2023/10/04 17:05:34;;;;;;;;;;;;;;;;;;4923912;28;19926;-83
2023/10/04 17:08:01;;;;;;;;;;;;;;;;;;4940313;28;19925;-82
2023/10/04 17:10:27;;;;;;;;;;;;;;;;;;4939343;28;20374;-82
2023/10/04 17:12:53;;;;;;;;;;;;;;;;;;4924321;28;19930;-82
2023/10/04 17:15:21;;;;;;;;;;;;;;;;;;4939838;28;19965;-82
2023/10/04 17:17:47;;;;;;;;;;;;;;;;;;4926305;28;20012;-82
2023/10/04 17:20:13;;;;;;;;;;;;;;;;;;4943994;28;19926;-82
2023/10/04 17:22:39;;;;;;;;;;;;;;;;;;4928314;28;20757;-83
2023/10/04 17:25:05;;;;;;;;;;;;;;;;;;4942651;28;19925;-83
2023/10/04 17:27:31;;;;;;;;;;;;;;;;;;4941120;28;20009;-83
2023/10/04 17:29:57;;;;;;;;;;;;;;;;;;4941950;28;19934;-82
2023/10/04 17:32:23;;;;;;;;;;;;;;;;;;4963138;28;19995;-81
2023/10/04 17:34:49;;;;;;;;;;;;;;;;;;4960680;28;20001;-84
2023/10/04 17:37:15;;;;;;;;;;;;;;;;;;4959455;28;19926;-84
2023/10/04 17:39:41;;;;;;;;;;;;;;;;;;4963407;28;20394;-82
2023/10/04 17:42:07;;;;;;;;;;;;;;;;;;4964574;28;20021;-82
2023/10/04 17:44:33;;;;;;;;;;;;;;;;;;4966951;28;19926;-82
2023/10/04 17:47:00;;;;;;;;;;;;;;;;;;4963587;28;19925;-81
2023/10/04 17:49:29;;;;;;;;;;;;;;;;;;4985561;28;19926;-82
2023/10/04 17:51:55;;;;;;;;;;;;;;;;;;4965257;28;19926;-81
2023/10/04 17:54:21;;;;;;;;;;;;;;;;;;4952134;28;19929;-81
2023/10/04 17:56:47;;;;;;;;;;;;;;;;;;4966337;28;19922;-82
2023/10/04 17:59:13;;;;;;;;;;;;;;;;;;4964476;28;20739;-82
2023/10/04 18:01:39;;;;;;;;;;;;;;;;;;4983816;28;19925;-82
2023/10/04 18:04:05;;;;;;;;;;;;;;;;;;4982903;28;19929;-82
2023/10/04 18:06:31;;;;;;;;;;;;;;;;;;4979954;28;20022;-78
2023/10/04 18:08:57;;;;;;;;;;;;;;;;;;4982418;28;20342;-80
2023/10/04 18:11:24;;;;;;;;;;;;;;;;;;4981900;28;19980;-77
2023/10/04 18:13:50;;;;;;;;;;;;;;;;;;4952150;28;19925;-77
2023/10/04 18:16:16;;;;;;;;;;;;;;;;;;4979254;28;19926;-77
2023/10/04 18:18:43;;;;;;;;;;;;;;;;;;4960920;28;19940;-77
2023/10/04 18:21:09;;;;;;;;;;;;;;;;;;4948193;28;19929;-79
2023/10/04 18:23:35;;;;;;;;;;;;;;;;;;4967095;28;19925;-77
2023/10/04 18:26:02;;;;;;;;;;;;;;;;;;4960550;28;20368;-78
2023/10/04 18:28:29;;;;;;;;;;;;;;;;;;4979197;28;19926;-79
2023/10/04 18:30:55;;;;;;;;;;;;;;;;;;4951632;28;20021;-78
2023/10/04 18:33:25;;;;;;;;;;;;;;;;;;4965276;28;20406;-77
2023/10/04 18:35:51;;;;;;;;;;;;;;;;;;4945260;28;19926;-78
2023/10/04 18:38:17;;;;;;;;;;;;;;;;;;4955001;28;20596;-78
2023/10/04 18:40:43;;;;;;;;;;;;;;;;;;4942312;28;19965;-76
2023/10/04 18:43:09;;;;;;;;;;;;;;;;;;4942470;28;20428;-79
2023/10/04 18:45:35;;;;;;;;;;;;;;;;;;4944378;28;20511;-76